createdAt,value
2022-11-29T00:01:43.643Z,96281.59
2022-11-29T00:04:40.708Z,96286.09
2022-11-29T00:07:37.708Z,96279.47
2022-11-29T00:10:38.163Z,96281.88
2022-11-29T00:13:35.666Z,96278.94
2022-11-29T00:16:32.875Z,96279.72
2022-11-29T00:19:31.698Z,96285.84
2022-11-29T00:22:29.331Z,96281.88
2022-11-29T00:25:27.691Z,96274.19
2022-11-29T00:28:24.524Z,96276.56
2022-11-29T00:31:32.652Z,96279.22
2022-11-29T00:34:29.551Z,96267.81
2022-11-29T00:37:26.513Z,96268.38
2022-11-29T00:40:23.363Z,96266.75
2022-11-29T00:43:20.202Z,96270.22
2022-11-29T00:46:17.297Z,96266.75
2022-11-29T00:49:14.479Z,96263.31
2022-11-29T00:52:11.309Z,96263.59
2022-11-29T00:55:08.743Z,96261.19
2022-11-29T00:58:06.242Z,96260.16
2022-11-29T01:01:04.421Z,96266.00
2022-11-29T01:04:02.320Z,96261.75
2022-11-29T01:06:59.599Z,96263.31
2022-11-29T01:09:56.443Z,96266.53
2022-11-29T01:12:53.539Z,96268.88
2022-11-29T01:15:57.617Z,96272.06
2022-11-29T01:18:54.528Z,96273.66
2022-11-29T01:21:51.343Z,96268.34
2022-11-29T01:24:48.385Z,96269.69
2022-11-29T01:27:45.648Z,96263.31
2022-11-29T01:30:42.533Z,96270.75
2022-11-29T01:33:40.052Z,96265.19
2022-11-29T01:36:36.964Z,96271.81
2022-11-29T01:39:33.817Z,96269.16
2022-11-29T01:42:30.651Z,96267.06
2022-11-29T01:45:27.536Z,96268.13
2022-11-29T01:48:30.318Z,96273.94
2022-11-29T01:51:29.519Z,96267.84
2022-11-29T01:54:29.043Z,96280.28
2022-11-29T01:57:27.093Z,96271.28
2022-11-29T02:00:23.968Z,96265.72
2022-11-29T02:03:20.821Z,96270.75
2022-11-29T02:06:18.261Z,96277.09
2022-11-29T02:09:24.261Z,96273.66
2022-11-29T02:12:38.564Z,96277.09
2022-11-29T02:15:50.384Z,96278.69
2022-11-29T02:19:22.035Z,96277.63
2022-11-29T02:22:53.350Z,96266.00
2022-11-29T02:26:15.626Z,96274.19
2022-11-29T02:29:45.440Z,96273.66
2022-11-29T02:33:09.817Z,96279.75
2022-11-29T02:36:43.006Z,96281.34
2022-11-29T02:40:01.784Z,96279.47
2022-11-29T02:43:40.752Z,96281.59
2022-11-29T02:46:56.730Z,96277.09
2022-11-29T02:50:18.665Z,96280.78
2022-11-29T02:53:40.943Z,96285.56
2022-11-29T02:56:46.663Z,96289.28
2022-11-29T03:00:10.852Z,96283.16
2022-11-29T03:03:26.847Z,96290.84
2022-11-29T03:07:02.254Z,96285.03
2022-11-29T03:10:28.411Z,96299.84
2022-11-29T03:14:06.269Z,96291.38
2022-11-29T03:17:42.048Z,96295.34
2022-11-29T03:21:24.484Z,96291.66
2022-11-29T03:24:35.616Z,96298.00
2022-11-29T03:28:04.152Z,96290.06
2022-11-29T03:31:14.231Z,96300.66
2022-11-29T03:35:08.013Z,96307.00
2022-11-29T03:38:42.743Z,96316.81
2022-11-29T03:41:58.516Z,96309.91
2022-11-29T03:45:13.862Z,96310.47
2022-11-29T03:48:26.894Z,96313.63
2022-11-29T03:51:38.051Z,96314.13
2022-11-29T03:54:46.665Z,96312.31
2022-11-29T03:58:14.835Z,96317.06
2022-11-29T04:01:49.224Z,96311.53
2022-11-29T04:05:32.835Z,96318.63
2022-11-29T04:09:25.747Z,96314.69
2022-11-29T04:12:41.006Z,96319.44
2022-11-29T04:16:10.738Z,96319.44
2022-11-29T04:20:04.301Z,96325.00
2022-11-29T04:23:42.984Z,96325.78
2022-11-29T04:27:04.979Z,96320.50
2022-11-29T04:30:21.191Z,96320.75
2022-11-29T04:33:58.880Z,96336.13
2022-11-29T04:37:22.902Z,96335.59
2022-11-29T04:40:26.951Z,96333.22
2022-11-29T04:44:13.346Z,96336.09
2022-11-29T04:47:46.368Z,96346.44
2022-11-29T04:51:20.893Z,96340.59
2022-11-29T04:54:52.596Z,96332.69
2022-11-29T04:58:03.785Z,96333.19
2022-11-29T05:01:50.486Z,96338.50
2022-11-29T05:05:12.000Z,96348.03
2022-11-29T05:08:53.953Z,96350.41
2022-11-29T05:12:21.547Z,96341.16
2022-11-29T05:15:40.144Z,96346.97
2022-11-29T05:18:42.502Z,96357.53
2022-11-29T05:22:03.925Z,96355.69
2022-11-29T05:25:27.340Z,96356.78
2022-11-29T05:28:43.895Z,96357.81
2022-11-29T05:32:20.690Z,96358.38
2022-11-29T05:35:29.408Z,96362.31
2022-11-29T05:38:57.570Z,96368.13
2022-11-29T05:42:37.475Z,96368.16
2022-11-29T05:46:16.636Z,96372.91
2022-11-29T05:49:50.448Z,96377.94
2022-11-29T05:53:19.223Z,96368.41
2022-11-29T05:56:32.511Z,96367.63
2022-11-29T05:59:30.818Z,96370.28
2022-11-29T06:02:27.627Z,96376.06
2022-11-29T06:06:07.087Z,96392.78
2022-11-29T06:09:37.804Z,96394.34
2022-11-29T06:12:36.089Z,96386.69
2022-11-29T06:15:51.320Z,96388.00
2022-11-29T06:19:23.130Z,96395.94
2022-11-29T06:22:58.134Z,96399.59
2022-11-29T06:26:35.717Z,96401.19
2022-11-29T06:30:10.852Z,96406.47
2022-11-29T06:33:21.439Z,96411.25
2022-11-29T06:36:59.086Z,96410.22
2022-11-29T06:39:56.332Z,96419.75
2022-11-29T06:42:53.161Z,96415.25
2022-11-29T06:45:56.044Z,96426.84
2022-11-29T06:49:22.187Z,96437.97
2022-11-29T06:52:44.303Z,96426.31
2022-11-29T06:55:59.417Z,96430.56
2022-11-29T06:59:17.117Z,96437.75
2022-11-29T07:02:20.000Z,96438.00
2022-11-29T07:05:22.422Z,96444.84
2022-11-29T07:08:24.687Z,96446.97
2022-11-29T07:11:21.951Z,96445.66
2022-11-29T07:14:19.095Z,96448.03
2022-11-29T07:17:25.962Z,96446.69
2022-11-29T07:21:03.928Z,96449.88
2022-11-29T07:24:29.984Z,96456.53
2022-11-29T07:28:12.876Z,96457.03
2022-11-29T07:31:11.719Z,96455.19
2022-11-29T07:34:44.271Z,96452.56
2022-11-29T07:38:38.264Z,96464.97
2022-11-29T07:42:08.186Z,96462.63
2022-11-29T07:45:28.454Z,96459.75
2022-11-29T07:48:26.849Z,96465.03
2022-11-29T07:51:23.750Z,96468.22
2022-11-29T07:54:22.256Z,96474.56
2022-11-29T07:57:19.123Z,96465.06
2022-11-29T08:00:18.382Z,96465.88
2022-11-29T08:03:15.284Z,96474.09
2022-11-29T08:06:12.138Z,96475.16
2022-11-29T08:09:09.091Z,96467.22
2022-11-29T08:12:06.183Z,96462.97
2022-11-29T08:15:03.385Z,96472.78
2022-11-29T08:18:01.313Z,96475.16
2022-11-29T08:20:58.141Z,96473.63
2022-11-29T08:23:55.016Z,96471.75
2022-11-29T08:26:51.868Z,96481.59
2022-11-29T08:29:48.692Z,96476.31
2022-11-29T08:32:51.132Z,96475.22
2022-11-29T08:35:48.329Z,96480.78
2022-11-29T08:38:45.959Z,96481.06
2022-11-29T08:41:42.943Z,96477.66
2022-11-29T08:44:39.928Z,96476.59
2022-11-29T08:47:38.255Z,96477.13
2022-11-29T08:50:35.088Z,96483.75
2022-11-29T08:53:41.666Z,96479.22
2022-11-29T08:59:55.490Z,96478.19
2022-11-29T09:02:52.326Z,96477.91
2022-11-29T09:05:49.308Z,96491.16
2022-11-29T09:08:46.205Z,96494.63
2022-11-29T09:11:47.009Z,96492.25
2022-11-29T09:14:46.349Z,96506.56
2022-11-29T09:17:43.386Z,96497.81
2022-11-29T09:20:44.133Z,96502.03
2022-11-29T09:23:42.645Z,96500.97
2022-11-29T09:26:40.795Z,96506.03
2022-11-29T09:29:37.859Z,96514.78
2022-11-29T09:32:35.532Z,96513.16
2022-11-29T09:35:34.610Z,96522.47
2022-11-29T09:38:31.449Z,96523.78
2022-11-29T09:42:11.895Z,96517.69
2022-11-29T09:45:19.814Z,96526.44
2022-11-29T09:48:55.821Z,96527.25
2022-11-29T09:52:10.807Z,96530.41
2022-11-29T09:55:23.702Z,96530.94
2022-11-29T09:58:26.290Z,96535.19
2022-11-29T10:01:38.141Z,96538.91
2022-11-29T10:04:40.802Z,96534.94
2022-11-29T10:07:56.812Z,96534.16
2022-11-29T10:11:36.737Z,96532.81
2022-11-29T10:15:00.269Z,96533.63
2022-11-29T10:19:04.508Z,96533.06
2022-11-29T10:22:10.284Z,96543.66
2022-11-29T10:25:10.457Z,96528.03
2022-11-29T10:28:26.372Z,96530.16
2022-11-29T10:31:27.483Z,96539.44
2022-11-29T10:34:26.619Z,96532.00
2022-11-29T10:37:24.617Z,96535.44
2022-11-29T10:40:32.334Z,96532.00
2022-11-29T10:43:29.221Z,96536.50
2022-11-29T10:46:32.497Z,96531.75
2022-11-29T10:49:35.163Z,96527.78
2022-11-29T10:52:33.728Z,96532.28
2022-11-29T10:56:22.405Z,96535.47
2022-11-29T10:59:31.037Z,96536.50
2022-11-29T11:02:28.383Z,96542.34
2022-11-29T11:05:27.068Z,96533.59
2022-11-29T11:08:26.434Z,96543.69
2022-11-29T11:11:33.182Z,96535.72
2022-11-29T11:14:36.275Z,96543.41
2022-11-29T11:17:33.767Z,96547.41
2022-11-29T11:20:34.846Z,96547.13
2022-11-29T11:23:38.661Z,96542.09
2022-11-29T11:26:44.970Z,96544.47
2022-11-29T11:29:44.972Z,96537.84
2022-11-29T11:33:26.516Z,96540.22
2022-11-29T11:36:27.349Z,96543.69
2022-11-29T11:39:24.260Z,96550.31
2022-11-29T11:42:37.343Z,96552.97
2022-11-29T11:45:38.562Z,96556.41
2022-11-29T11:48:35.934Z,96556.16
2022-11-29T11:51:33.937Z,96567.56
2022-11-29T11:54:31.726Z,96556.94
2022-11-29T11:57:30.071Z,96571.25
2022-11-29T12:01:09.644Z,96568.09
2022-11-29T12:04:22.752Z,96564.34
2022-11-29T12:08:05.674Z,96567.28
2022-11-29T12:10:53.766Z,96571.78
2022-11-29T12:13:58.117Z,96571.25
2022-11-29T12:17:22.507Z,96571.00
2022-11-29T12:21:18.454Z,96574.69
2022-11-29T12:24:40.347Z,96582.91
2022-11-29T12:27:37.290Z,96579.19
2022-11-29T12:30:34.754Z,96587.41
2022-11-29T12:34:27.543Z,96586.06
2022-11-29T12:37:42.357Z,96591.13
2022-11-29T12:40:58.235Z,96582.13
2022-11-29T12:44:22.296Z,96584.50
2022-11-29T12:47:50.378Z,96589.03
2022-11-29T12:51:09.184Z,96591.91
2022-11-29T12:54:55.850Z,96583.44
2022-11-29T12:58:07.391Z,96588.50
2022-11-29T13:01:31.588Z,96592.19
2022-11-29T13:04:59.765Z,96586.59
2022-11-29T13:08:16.534Z,96585.84
2022-11-29T13:11:37.583Z,96586.88
2022-11-29T13:14:58.617Z,96594.84
2022-11-29T13:18:22.732Z,96596.94
2022-11-29T13:21:31.903Z,96589.28
2022-11-29T13:24:42.938Z,96604.66
2022-11-29T13:28:03.457Z,96599.06
2022-11-29T13:31:12.586Z,96600.66
2022-11-29T13:34:46.378Z,96603.03
2022-11-29T13:38:18.544Z,96600.94
2022-11-29T13:42:10.762Z,96603.09
2022-11-29T13:45:39.315Z,96606.50
2022-11-29T13:48:50.154Z,96608.84
2022-11-29T13:51:47.130Z,96616.06
2022-11-29T13:54:44.228Z,96617.91
2022-11-29T13:58:20.944Z,96611.81
2022-11-29T14:01:17.997Z,96610.25
2022-11-29T14:04:39.409Z,96608.63
2022-11-29T14:08:48.067Z,96613.88
2022-11-29T14:12:24.498Z,96620.28
2022-11-29T14:15:31.748Z,96614.97
2022-11-29T14:18:37.085Z,96616.84
2022-11-29T14:22:02.919Z,96608.91
2022-11-29T14:25:08.324Z,96614.47
2022-11-29T14:28:18.538Z,96613.13
2022-11-29T14:31:50.129Z,96619.50
2022-11-29T14:35:04.805Z,96613.88
2022-11-29T14:38:33.905Z,96613.38
2022-11-29T14:42:19.873Z,96625.88
2022-11-29T14:45:33.442Z,96622.66
2022-11-29T14:48:32.965Z,96622.44
2022-11-29T14:51:34.253Z,96625.84
2022-11-29T14:54:32.519Z,96637.19
2022-11-29T14:57:47.177Z,96630.31
2022-11-29T15:01:01.777Z,96640.69
2022-11-29T15:04:05.506Z,96641.97
2022-11-29T15:07:04.374Z,96638.28
2022-11-29T15:10:04.997Z,96635.63
2022-11-29T15:13:03.950Z,96642.75
2022-11-29T15:16:49.687Z,96648.34
2022-11-29T15:20:19.526Z,96648.84
2022-11-29T15:23:21.429Z,96645.19
2022-11-29T15:26:20.969Z,96651.25
2022-11-29T15:29:21.589Z,96653.88
2022-11-29T15:32:32.497Z,96663.16
2022-11-29T15:35:30.173Z,96666.56
2022-11-29T15:38:27.016Z,96654.16
2022-11-29T15:41:28.966Z,96667.34
2022-11-29T15:44:25.944Z,96664.41
2022-11-29T15:47:26.643Z,96669.81
2022-11-29T15:50:33.048Z,96673.72
2022-11-29T15:53:44.050Z,96685.72
2022-11-29T15:56:48.055Z,96681.94
2022-11-29T16:00:00.119Z,96683.34
2022-11-29T16:03:03.006Z,96690.19
2022-11-29T16:06:22.741Z,96694.13
2022-11-29T16:09:36.258Z,96700.00
2022-11-29T16:12:33.254Z,96692.84
2022-11-29T16:15:40.282Z,96703.19
2022-11-29T16:18:40.989Z,96699.16
2022-11-29T16:21:37.828Z,96700.97
2022-11-29T16:24:36.655Z,96703.66
2022-11-29T16:27:35.318Z,96703.91
2022-11-29T16:30:34.174Z,96707.38
2022-11-29T16:33:31.673Z,96705.22
2022-11-29T16:36:28.514Z,96712.66
2022-11-29T16:39:26.122Z,96707.88
2022-11-29T16:42:29.973Z,96720.38
2022-11-29T16:45:38.518Z,96713.94
2022-11-29T16:48:38.336Z,96713.69
2022-11-29T16:51:45.778Z,96721.59
2022-11-29T16:54:42.794Z,96710.25
2022-11-29T16:57:40.250Z,96716.44
2022-11-29T17:00:37.212Z,96716.59
2022-11-29T17:03:34.487Z,96719.78
2022-11-29T17:06:31.582Z,96721.38
2022-11-29T17:09:31.665Z,96711.66
2022-11-29T17:12:28.583Z,96727.25
2022-11-29T17:15:25.483Z,96727.81
2022-11-29T17:18:22.381Z,96733.56
2022-11-29T17:21:27.866Z,96729.91
2022-11-29T17:24:25.430Z,96721.16
2022-11-29T17:27:22.258Z,96726.72
2022-11-29T17:30:19.170Z,96734.91
2022-11-29T17:33:16.109Z,96737.22
2022-11-29T17:36:16.657Z,96738.31
2022-11-29T17:39:15.605Z,96735.41
2022-11-29T17:42:12.583Z,96749.19
2022-11-29T17:45:10.040Z,96741.00
2022-11-29T17:48:07.015Z,96741.50
2022-11-29T17:51:13.536Z,96746.81
2022-11-29T17:54:22.645Z,96750.72
2022-11-29T17:57:19.833Z,96751.84
2022-11-29T18:00:17.935Z,96747.38
2022-11-29T18:03:14.753Z,96747.44
2022-11-29T18:06:20.313Z,96750.63
2022-11-29T18:09:19.352Z,96758.22
2022-11-29T18:12:16.399Z,96742.38
2022-11-29T18:15:13.239Z,96747.88
2022-11-29T18:18:10.687Z,96743.63
2022-11-29T18:21:09.985Z,96751.59
2022-11-29T18:24:08.042Z,96752.41
2022-11-29T18:27:04.914Z,96742.88
2022-11-29T18:30:01.734Z,96749.16
2022-11-29T18:32:59.719Z,96740.38
2022-11-29T18:36:05.238Z,96754.47
2022-11-29T18:39:09.634Z,96754.75
2022-11-29T18:42:06.456Z,96755.81
2022-11-29T18:45:03.540Z,96761.16
2022-11-29T18:48:00.381Z,96763.56
2022-11-29T18:51:06.212Z,96759.25
2022-11-29T18:54:03.696Z,96772.72
2022-11-29T18:57:00.598Z,96778.09
2022-11-29T18:59:57.470Z,96778.91
2022-11-29T19:02:54.466Z,96775.22
2022-11-29T19:05:53.948Z,96771.19
2022-11-29T19:08:52.726Z,96773.28
2022-11-29T19:11:50.668Z,96767.69
2022-11-29T19:14:50.057Z,96768.75
2022-11-29T19:17:47.122Z,96768.28
2022-11-29T19:20:43.967Z,96774.16
2022-11-29T19:23:42.681Z,96766.22
2022-11-29T19:26:40.278Z,96769.13
2022-11-29T19:29:39.772Z,96778.81
2022-11-29T19:32:36.794Z,96778.03
2022-11-29T19:35:34.820Z,96773.81
2022-11-29T19:38:31.766Z,96775.38
2022-11-29T19:41:34.948Z,96780.47
2022-11-29T19:44:48.259Z,96786.28
2022-11-29T19:47:49.420Z,96792.06
2022-11-29T19:50:46.266Z,96784.13
2022-11-29T19:53:43.393Z,96787.56
2022-11-29T19:56:40.402Z,96787.13
2022-11-29T19:59:37.262Z,96793.44
2022-11-29T20:02:34.188Z,96783.97
2022-11-29T20:05:31.070Z,96789.22
2022-11-29T20:08:28.773Z,96790.22
2022-11-29T20:11:26.433Z,96790.78
2022-11-29T20:14:23.327Z,96793.38
2022-11-29T20:17:20.156Z,96798.69
2022-11-29T20:20:17.140Z,96803.56
2022-11-29T20:23:14.015Z,96801.28
2022-11-29T20:26:20.187Z,96804.34
2022-11-29T20:29:17.718Z,96808.34
2022-11-29T20:32:14.691Z,96815.19
2022-11-29T20:35:12.287Z,96817.03
2022-11-29T20:38:37.406Z,96805.38
2022-11-29T20:41:53.201Z,96811.47
2022-11-29T20:44:57.258Z,96813.66
2022-11-29T20:48:11.155Z,96818.22
2022-11-29T20:51:10.348Z,96818.81
2022-11-29T20:54:09.563Z,96825.03
2022-11-29T20:57:06.377Z,96817.09
2022-11-29T21:00:03.688Z,96830.84
2022-11-29T21:03:00.649Z,96824.91
2022-11-29T21:06:00.858Z,96831.25
2022-11-29T21:08:57.693Z,96827.06
2022-11-29T21:11:54.915Z,96838.50
2022-11-29T21:14:52.354Z,96825.75
2022-11-29T21:17:49.805Z,96830.91
2022-11-29T21:21:11.799Z,96832.66
2022-11-29T21:24:36.015Z,96833.44
2022-11-29T21:27:34.810Z,96830.53
2022-11-29T21:30:31.960Z,96828.44
2022-11-29T21:33:29.875Z,96830.25
2022-11-29T21:36:27.013Z,96831.34
2022-11-29T21:39:32.555Z,96843.50
2022-11-29T21:42:29.386Z,96839.56
2022-11-29T21:45:26.240Z,96845.19
2022-11-29T21:48:35.310Z,96847.09
2022-11-29T21:51:32.146Z,96850.16
2022-11-29T21:54:29.574Z,96845.66
2022-11-29T21:57:26.426Z,96849.88
2022-11-29T22:00:23.378Z,96842.19
2022-11-29T22:03:20.750Z,96827.72
2022-11-29T22:06:20.325Z,96831.47
2022-11-29T22:09:17.207Z,96824.66
2022-11-29T22:12:32.928Z,96822.22
2022-11-29T22:15:32.595Z,96820.16
2022-11-29T22:18:29.466Z,96823.56
2022-11-29T22:21:26.310Z,96835.91
2022-11-29T22:24:26.487Z,96842.75
2022-11-29T22:27:23.337Z,96847.56
2022-11-29T22:30:20.375Z,96855.78
2022-11-29T22:33:17.221Z,96853.13
2022-11-29T22:36:14.070Z,96852.34
2022-11-29T22:39:11.043Z,96847.31
2022-11-29T22:42:07.862Z,96855.59
2022-11-29T22:45:05.079Z,96853.19
2022-11-29T22:48:02.024Z,96845.97
2022-11-29T22:51:12.627Z,96843.53
2022-11-29T22:54:11.798Z,96851.03
2022-11-29T22:57:08.727Z,96844.97
2022-11-29T23:00:06.708Z,96839.53
2022-11-29T23:03:03.552Z,96840.88
2022-11-29T23:06:06.913Z,96845.16
2022-11-29T23:09:15.076Z,96853.09
2022-11-29T23:12:11.911Z,96844.09
2022-11-29T23:15:09.218Z,96853.09
2022-11-29T23:18:06.114Z,96855.25
2022-11-29T23:21:10.358Z,96855.56
2022-11-29T23:24:07.785Z,96856.03
2022-11-29T23:27:04.914Z,96852.63
2022-11-29T23:30:01.787Z,96850.16
2022-11-29T23:32:58.621Z,96846.44
2022-11-29T23:36:05.157Z,96839.75
2022-11-29T23:39:02.024Z,96843.84
2022-11-29T23:41:58.863Z,96842.25
2022-11-29T23:44:55.720Z,96843.59
2022-11-29T23:47:52.568Z,96842.81
2022-11-29T23:50:49.482Z,96845.97
2022-11-29T23:53:51.267Z,96842.31
2022-11-29T23:56:48.179Z,96849.69
2022-11-29T23:59:45.001Z,96850.47
